Time;durP1;ratioP1;P1;durP2;ratioP2;P2;SDS_P1;SDS_P2;PMS_P1;PMS_P2;Temp;Humidity;BMP_temperature;BMP_pressure;BME280_temperature;BME280_humidity;BME280_pressure;Samples;Min_cycle;Max_cycle;Signal;HPM_P1;HPM_P2
2022/06/19 00:01:47;;;;;;;14.15;3.97;;;;;;;;;;5017438;28;20045;-68
2022/06/19 00:04:13;;;;;;;18.35;3.72;;;;;;;;;;5034960;28;20523;-69
2022/06/19 00:06:40;;;;;;;15.82;4.47;;;;;;;;;;5052202;28;20458;-68
2022/06/19 00:09:06;;;;;;;20.55;3.67;;;;;;;;;;5047578;28;20099;-68
2022/06/19 00:11:34;;;;;;;18.80;4.57;;;;;;;;;;5048557;28;20084;-68
2022/06/19 00:14:01;;;;;;;12.52;4.72;;;;;;;;;;5035257;28;20045;-68
2022/06/19 00:16:28;;;;;;;13.50;3.80;;;;;;;;;;5034857;28;20053;-68
2022/06/19 00:18:54;;;;;;;8.65;3.58;;;;;;;;;;5034622;28;20057;-68
2022/06/19 00:21:21;;;;;;;13.02;3.67;;;;;;;;;;5034601;28;20049;-68
2022/06/19 00:23:48;;;;;;;11.93;3.90;;;;;;;;;;5033286;28;20056;-68
2022/06/19 00:26:14;;;;;;;15.82;3.85;;;;;;;;;;5034843;28;20103;-68
2022/06/19 00:28:41;;;;;;;15.75;4.18;;;;;;;;;;5034499;28;20467;-68
2022/06/19 00:31:08;;;;;;;11.00;3.55;;;;;;;;;;5033081;28;20057;-68
2022/06/19 00:33:34;;;;;;;12.75;3.08;;;;;;;;;;5033064;28;20056;-68
2022/06/19 00:36:01;;;;;;;18.63;4.85;;;;;;;;;;5034669;28;20053;-68
2022/06/19 00:38:28;;;;;;;13.80;3.15;;;;;;;;;;5034706;28;20440;-68
2022/06/19 00:40:56;;;;;;;12.82;3.58;;;;;;;;;;5034125;28;20050;-68
2022/06/19 00:43:23;;;;;;;10.40;3.92;;;;;;;;;;5034139;28;20128;-68
2022/06/19 00:45:51;;;;;;;14.77;3.58;;;;;;;;;;5034401;28;20095;-68
2022/06/19 00:48:32;;;;;;;11.13;3.75;;;;;;;;;;5033073;28;20077;-69
2022/06/19 00:51:02;;;;;;;16.27;4.10;;;;;;;;;;5032941;28;20104;-68
2022/06/19 00:53:31;;;;;;;9.40;3.17;;;;;;;;;;5032639;28;20129;-69
2022/06/19 00:55:58;;;;;;;15.55;4.10;;;;;;;;;;5032754;28;20107;-69
2022/06/19 00:58:35;;;;;;;10.57;4.05;;;;;;;;;;5032718;28;20519;-69
2022/06/19 01:01:05;;;;;;;15.50;3.55;;;;;;;;;;5017272;28;20064;-69
2022/06/19 01:03:41;;;;;;;8.38;3.42;;;;;;;;;;5016761;28;20050;-68
2022/06/19 01:06:08;;;;;;;11.50;4.20;;;;;;;;;;5025795;28;20063;-69
2022/06/19 01:08:35;;;;;;;8.98;3.15;;;;;;;;;;5036072;28;20057;-68
2022/06/19 01:11:02;;;;;;;14.13;4.60;;;;;;;;;;5053354;28;20048;-68
2022/06/19 01:13:29;;;;;;;15.50;3.58;;;;;;;;;;5052455;28;20052;-69
2022/06/19 01:15:56;;;;;;;15.82;4.88;;;;;;;;;;5052568;28;20122;-68
2022/06/19 01:18:23;;;;;;;15.40;3.92;;;;;;;;;;5035918;28;20060;-69
2022/06/19 01:20:50;;;;;;;14.23;4.43;;;;;;;;;;5039087;28;20393;-69
2022/06/19 01:23:32;;;;;;;17.02;3.53;;;;;;;;;;5032036;28;20099;-69
2022/06/19 01:25:59;;;;;;;13.20;3.55;;;;;;;;;;5032482;28;20095;-69
2022/06/19 01:28:45;;;;;;;11.07;3.42;;;;;;;;;;5038814;28;20060;-69
2022/06/19 01:31:16;;;;;;;10.30;3.45;;;;;;;;;;5037163;28;20110;-68
2022/06/19 01:33:47;;;;;;;14.02;4.50;;;;;;;;;;5051850;28;20080;-69
2022/06/19 01:36:15;;;;;;;8.60;3.00;;;;;;;;;;5036294;28;20110;-69
2022/06/19 01:38:43;;;;;;;10.45;3.70;;;;;;;;;;5035644;28;20049;-69
2022/06/19 01:41:16;;;;;;;11.60;3.65;;;;;;;;;;5035418;28;20075;-68
2022/06/19 01:43:43;;;;;;;8.57;3.80;;;;;;;;;;5035545;28;20496;-69
2022/06/19 01:46:10;;;;;;;7.78;3.15;;;;;;;;;;5053005;28;20044;-68
2022/06/19 01:48:37;;;;;;;10.55;3.47;;;;;;;;;;5051515;28;20048;-68
2022/06/19 01:51:05;;;;;;;9.82;3.90;;;;;;;;;;5052881;28;20097;-68
2022/06/19 01:53:36;;;;;;;10.15;4.05;;;;;;;;;;5035519;28;20049;-69
2022/06/19 01:56:05;;;;;;;6.07;3.05;;;;;;;;;;5051791;28;20419;-69
2022/06/19 01:58:32;;;;;;;15.60;3.70;;;;;;;;;;5045466;28;20068;-69
2022/06/19 02:00:58;;;;;;;9.00;4.15;;;;;;;;;;5020588;28;20076;-69
2022/06/19 02:03:29;;;;;;;11.15;4.80;;;;;;;;;;5052448;28;20045;-69
2022/06/19 02:05:56;;;;;;;16.60;4.47;;;;;;;;;;5051587;28;20466;-70
2022/06/19 02:08:23;;;;;;;10.43;4.10;;;;;;;;;;5047392;28;20041;-70
2022/06/19 02:10:49;;;;;;;12.13;3.50;;;;;;;;;;5031645;28;20045;-70
2022/06/19 02:13:17;;;;;;;12.25;4.25;;;;;;;;;;5031313;28;20056;-70
2022/06/19 02:15:44;;;;;;;11.02;4.00;;;;;;;;;;5031318;28;20405;-70
2022/06/19 02:18:15;;;;;;;10.23;3.97;;;;;;;;;;5035313;28;20070;-70
2022/06/19 02:20:42;;;;;;;14.98;4.07;;;;;;;;;;5035022;28;20423;-70
2022/06/19 02:23:08;;;;;;;14.65;4.38;;;;;;;;;;5052177;28;20041;-70
2022/06/19 02:25:38;;;;;;;15.02;4.32;;;;;;;;;;5052519;28;20118;-69
2022/06/19 02:28:04;;;;;;;14.57;3.63;;;;;;;;;;5051343;28;20071;-70
2022/06/19 02:30:31;;;;;;;15.05;4.45;;;;;;;;;;5051171;28;20045;-70
2022/06/19 02:32:58;;;;;;;9.63;3.88;;;;;;;;;;5050568;28;20056;-70
2022/06/19 02:35:25;;;;;;;13.13;4.05;;;;;;;;;;5050872;28;20056;-70
2022/06/19 02:37:54;;;;;;;16.63;4.05;;;;;;;;;;5052310;28;20045;-67
2022/06/19 02:40:41;;;;;;;13.27;3.97;;;;;;;;;;5051930;28;20420;-67
2022/06/19 02:43:15;;;;;;;11.10;3.85;;;;;;;;;;5035345;28;20045;-67
2022/06/19 02:45:42;;;;;;;11.15;4.40;;;;;;;;;;5035061;28;20053;-67
2022/06/19 02:48:17;;;;;;;10.50;3.60;;;;;;;;;;5051878;28;20045;-67
2022/06/19 02:50:44;;;;;;;17.15;4.18;;;;;;;;;;5034480;28;20057;-67
2022/06/19 02:53:11;;;;;;;11.55;4.05;;;;;;;;;;5051700;28;20049;-67
2022/06/19 02:55:38;;;;;;;13.77;3.58;;;;;;;;;;5051949;28;20052;-67
2022/06/19 02:58:05;;;;;;;9.95;3.75;;;;;;;;;;5051898;28;20060;-67
2022/06/19 03:00:31;;;;;;;15.13;4.07;;;;;;;;;;5051714;28;20495;-67
2022/06/19 03:03:01;;;;;;;11.00;3.88;;;;;;;;;;5051243;28;20049;-67
2022/06/19 03:05:28;;;;;;;11.20;4.32;;;;;;;;;;5034395;28;20088;-67
2022/06/19 03:07:55;;;;;;;11.00;3.30;;;;;;;;;;5030397;28;20053;-67
2022/06/19 03:10:22;;;;;;;9.93;4.18;;;;;;;;;;5030040;28;20049;-67
2022/06/19 03:12:49;;;;;;;9.48;3.95;;;;;;;;;;5031200;28;20052;-67
2022/06/19 03:15:16;;;;;;;14.77;3.97;;;;;;;;;;5031889;28;20045;-67
2022/06/19 03:17:43;;;;;;;10.52;4.43;;;;;;;;;;5031692;28;20056;-67
2022/06/19 03:20:15;;;;;;;14.38;4.20;;;;;;;;;;5031599;28;20050;-67
2022/06/19 03:22:42;;;;;;;13.63;4.28;;;;;;;;;;5031283;28;20057;-67
2022/06/19 03:25:09;;;;;;;9.77;3.95;;;;;;;;;;5031944;28;20454;-67
2022/06/19 03:27:35;;;;;;;11.20;3.33;;;;;;;;;;5030526;28;20049;-67
2022/06/19 03:30:03;;;;;;;11.02;3.50;;;;;;;;;;5031498;28;20045;-67
2022/06/19 03:32:30;;;;;;;14.27;3.65;;;;;;;;;;5031286;28;20119;-67
2022/06/19 03:34:56;;;;;;;6.97;2.88;;;;;;;;;;5031758;28;20053;-67
2022/06/19 03:37:23;;;;;;;12.57;4.07;;;;;;;;;;5031610;28;20057;-67
2022/06/19 03:39:50;;;;;;;8.82;3.03;;;;;;;;;;5031430;28;20057;-67
2022/06/19 03:42:17;;;;;;;10.35;3.08;;;;;;;;;;5031360;28;20053;-67
2022/06/19 03:44:43;;;;;;;11.38;2.85;;;;;;;;;;5031801;28;20038;-67
2022/06/19 03:47:11;;;;;;;9.02;3.47;;;;;;;;;;5031294;28;20076;-67
2022/06/19 03:49:38;;;;;;;9.57;3.20;;;;;;;;;;5014165;28;20081;-67
2022/06/19 03:52:05;;;;;;;8.68;3.35;;;;;;;;;;5029715;28;20060;-67
2022/06/19 03:54:32;;;;;;;11.07;3.22;;;;;;;;;;5038114;28;20037;-67
2022/06/19 03:56:59;;;;;;;7.53;2.85;;;;;;;;;;5051388;28;20060;-67
2022/06/19 03:59:26;;;;;;;11.32;2.92;;;;;;;;;;5051119;28;20064;-67
2022/06/19 04:01:52;;;;;;;8.95;3.47;;;;;;;;;;5050811;28;20049;-67
2022/06/19 04:04:19;;;;;;;11.68;2.78;;;;;;;;;;5051195;28;20052;-67
2022/06/19 04:06:45;;;;;;;8.13;2.75;;;;;;;;;;5051030;28;20053;-67
2022/06/19 04:09:14;;;;;;;13.27;3.22;;;;;;;;;;5046002;28;20064;-67
2022/06/19 04:11:42;;;;;;;7.40;2.58;;;;;;;;;;5030931;28;20457;-67
2022/06/19 04:14:12;;;;;;;8.85;2.80;;;;;;;;;;5031242;28;20095;-67
2022/06/19 04:16:39;;;;;;;10.32;3.38;;;;;;;;;;5031446;28;20057;-67
2022/06/19 04:19:06;;;;;;;5.07;3.35;;;;;;;;;;5031271;28;20049;-67
2022/06/19 04:21:35;;;;;;;8.23;2.92;;;;;;;;;;5031115;28;20420;-67
2022/06/19 04:24:04;;;;;;;7.65;2.92;;;;;;;;;;5034755;28;20056;-67
2022/06/19 04:26:34;;;;;;;12.88;3.05;;;;;;;;;;5034426;28;20055;-66
2022/06/19 04:29:01;;;;;;;9.93;2.85;;;;;;;;;;5034477;28;20471;-67
2022/06/19 04:31:27;;;;;;;9.27;3.15;;;;;;;;;;5034448;28;20084;-67
2022/06/19 04:33:54;;;;;;;9.88;3.13;;;;;;;;;;5034412;28;20049;-67
2022/06/19 04:36:22;;;;;;;10.40;3.25;;;;;;;;;;5034454;28;20057;-67
2022/06/19 04:38:50;;;;;;;8.77;3.08;;;;;;;;;;5034145;28;20045;-66
2022/06/19 04:41:32;;;;;;;10.77;3.35;;;;;;;;;;5033836;28;20064;-66
2022/06/19 04:43:59;;;;;;;12.67;2.77;;;;;;;;;;5034158;28;20050;-66
2022/06/19 04:46:26;;;;;;;8.70;3.15;;;;;;;;;;5034148;28;20483;-67
2022/06/19 04:48:53;;;;;;;11.57;3.60;;;;;;;;;;5049170;28;20098;-67
2022/06/19 04:51:20;;;;;;;9.50;3.05;;;;;;;;;;5053873;28;20053;-66
2022/06/19 04:53:47;;;;;;;10.75;3.00;;;;;;;;;;5053713;28;20053;-69
2022/06/19 04:56:15;;;;;;;9.25;2.95;;;;;;;;;;5053723;28;20060;-68
2022/06/19 04:58:42;;;;;;;7.07;3.20;;;;;;;;;;5053952;28;20483;-68
2022/06/19 05:01:20;;;;;;;9.65;3.47;;;;;;;;;;5048376;28;20052;-68
2022/06/19 05:03:47;;;;;;;8.75;2.92;;;;;;;;;;5053624;28;20063;-68
2022/06/19 05:06:14;;;;;;;10.23;2.80;;;;;;;;;;5053091;28;20056;-68
2022/06/19 05:08:40;;;;;;;8.63;2.90;;;;;;;;;;5053680;28;20072;-68
2022/06/19 05:11:11;;;;;;;12.02;2.70;;;;;;;;;;5053881;28;20069;-68
2022/06/19 05:13:37;;;;;;;12.15;2.90;;;;;;;;;;5053680;28;20057;-68
2022/06/19 05:16:10;;;;;;;9.55;2.72;;;;;;;;;;5052772;28;20052;-68
2022/06/19 05:18:37;;;;;;;;;;;;;;;;;;5054086;28;20107;-68
2022/06/19 05:21:04;;;;;;;12.30;3.55;;;;;;;;;;5053389;28;20369;-68
2022/06/19 05:23:35;;;;;;;11.27;3.30;;;;;;;;;;5053775;28;20056;-68
2022/06/19 05:26:10;;;;;;;10.55;2.90;;;;;;;;;;5053721;28;20048;-68
2022/06/19 05:28:36;;;;;;;11.20;3.10;;;;;;;;;;5049659;28;20079;-68
2022/06/19 05:31:03;;;;;;;13.35;3.03;;;;;;;;;;5053287;28;20056;-68
2022/06/19 05:33:31;;;;;;;11.75;3.40;;;;;;;;;;5052506;28;20053;-68
2022/06/19 05:35:58;;;;;;;10.80;3.33;;;;;;;;;;5053302;28;20518;-68
2022/06/19 05:38:25;;;;;;;14.57;2.80;;;;;;;;;;5035103;28;20049;-68
2022/06/19 05:40:53;;;;;;;8.38;2.80;;;;;;;;;;5033107;28;20058;-69
2022/06/19 05:43:20;;;;;;;10.93;3.17;;;;;;;;;;5033461;28;20053;-68
2022/06/19 05:46:15;;;;;;;13.10;3.30;;;;;;;;;;5032988;28;20055;-68
2022/06/19 05:48:42;;;;;;;12.27;3.58;;;;;;;;;;5033036;28;20053;-68
2022/06/19 05:51:13;;;;;;;11.88;3.08;;;;;;;;;;5033146;28;20049;-68
2022/06/19 05:53:42;;;;;;;15.45;3.47;;;;;;;;;;5032991;28;20049;-68
2022/06/19 05:56:09;;;;;;;15.13;3.33;;;;;;;;;;5033058;28;20049;-68
2022/06/19 05:58:36;;;;;;;14.63;3.22;;;;;;;;;;5051420;28;20053;-68
2022/06/19 06:01:03;;;;;;;12.20;3.13;;;;;;;;;;5052672;28;20499;-68
2022/06/19 06:03:30;;;;;;;15.30;3.28;;;;;;;;;;5051509;28;20100;-68
2022/06/19 06:06:00;;;;;;;16.15;4.45;;;;;;;;;;5052594;28;20049;-67
2022/06/19 06:08:27;;;;;;;14.20;3.30;;;;;;;;;;5032327;28;20087;-67
2022/06/19 06:10:54;;;;;;;9.65;3.50;;;;;;;;;;5030334;28;20394;-66
2022/06/19 06:13:21;;;;;;;9.77;2.90;;;;;;;;;;5030666;28;20050;-68
2022/06/19 06:15:48;;;;;;;12.38;2.83;;;;;;;;;;5030786;28;20106;-68
2022/06/19 06:18:15;;;;;;;13.85;3.45;;;;;;;;;;5036837;28;20045;-68
2022/06/19 06:20:42;;;;;;;11.30;3.38;;;;;;;;;;5049758;28;20495;-69
2022/06/19 06:23:09;;;;;;;11.45;2.90;;;;;;;;;;5050124;28;20056;-68
2022/06/19 06:25:40;;;;;;;13.55;3.10;;;;;;;;;;5048765;28;20041;-68
2022/06/19 06:28:12;;;;;;;17.00;4.18;;;;;;;;;;5035918;28;20109;-68
2022/06/19 06:30:39;;;;;;;12.43;2.90;;;;;;;;;;5030586;28;20064;-68
2022/06/19 06:33:06;;;;;;;19.05;3.97;;;;;;;;;;5029667;28;20093;-68
2022/06/19 06:35:32;;;;;;;11.18;3.03;;;;;;;;;;5030314;28;20562;-68
2022/06/19 06:37:59;;;;;;;12.25;3.15;;;;;;;;;;5030129;28;20099;-68
2022/06/19 06:40:27;;;;;;;11.13;3.65;;;;;;;;;;5030033;28;20049;-68
2022/06/19 06:42:54;;;;;;;11.75;3.30;;;;;;;;;;5029785;28;20061;-69
2022/06/19 06:45:21;;;;;;;12.55;4.78;;;;;;;;;;5028797;28;20041;-68
2022/06/19 06:47:48;;;;;;;11.80;2.97;;;;;;;;;;5029804;28;20057;-68
2022/06/19 06:50:14;;;;;;;14.95;3.00;;;;;;;;;;5029895;28;20500;-68
2022/06/19 06:52:41;;;;;;;12.70;3.03;;;;;;;;;;5029716;28;20053;-68
2022/06/19 06:55:08;;;;;;;13.05;3.33;;;;;;;;;;5030114;28;20045;-68
2022/06/19 06:57:35;;;;;;;12.52;3.72;;;;;;;;;;5038197;28;20057;-68
2022/06/19 07:00:03;;;;;;;12.25;3.45;;;;;;;;;;5032894;28;20049;-67
2022/06/19 07:02:32;;;;;;;10.25;2.72;;;;;;;;;;5029453;28;20050;-70
2022/06/19 07:04:59;;;;;;;14.88;3.78;;;;;;;;;;5014798;28;20052;-68
2022/06/19 07:07:26;;;;;;;12.45;3.00;;;;;;;;;;5020013;28;20492;-67
2022/06/19 07:09:52;;;;;;;10.88;3.00;;;;;;;;;;5013808;28;20045;-67
2022/06/19 07:12:19;;;;;;;9.05;3.20;;;;;;;;;;5019243;28;20045;-67
2022/06/19 07:14:46;;;;;;;17.42;4.32;;;;;;;;;;5026796;28;20045;-67
2022/06/19 07:17:12;;;;;;;16.73;3.25;;;;;;;;;;5026004;28;20058;-68
2022/06/19 07:19:39;;;;;;;15.93;3.92;;;;;;;;;;5023892;28;20132;-67
2022/06/19 07:22:10;;;;;;;11.07;3.08;;;;;;;;;;5020705;28;20467;-67
2022/06/19 07:24:37;;;;;;;16.17;3.80;;;;;;;;;;5021691;28;20045;-67
2022/06/19 07:27:04;;;;;;;13.00;4.00;;;;;;;;;;5019918;28;20060;-66
2022/06/19 07:29:31;;;;;;;13.30;4.03;;;;;;;;;;5022001;28;20054;-68
2022/06/19 07:31:57;;;;;;;9.90;3.35;;;;;;;;;;5019321;28;20513;-66
2022/06/19 07:34:24;;;;;;;13.13;3.58;;;;;;;;;;5022620;28;20103;-67
2022/06/19 07:36:58;;;;;;;12.30;3.28;;;;;;;;;;5024988;28;20049;-66
2022/06/19 07:39:25;;;;;;;7.55;3.13;;;;;;;;;;5016631;28;20054;-67
2022/06/19 07:41:51;;;;;;;18.95;3.58;;;;;;;;;;5018757;28;20479;-67
2022/06/19 07:44:18;;;;;;;12.27;3.25;;;;;;;;;;5023031;28;20428;-67
2022/06/19 07:54:44;;;;;;;14.80;4.35;;;;;;;;;;5060182;22;20041;-69
2022/06/19 07:57:10;;;;;;;11.25;3.92;;;;;;;;;;5041042;28;20056;-69
2022/06/19 07:59:37;;;;;;;14.73;3.78;;;;;;;;;;5046537;28;20053;-69
2022/06/19 08:02:07;;;;;;;14.05;4.68;;;;;;;;;;5047383;28;20049;-69
2022/06/19 08:04:34;;;;;;;12.63;4.18;;;;;;;;;;5041662;28;20607;-69
2022/06/19 08:07:14;;;;;;;14.40;5.10;;;;;;;;;;5041857;28;20045;-69
2022/06/19 08:09:41;;;;;;;12.00;4.53;;;;;;;;;;5038983;28;20049;-68
2022/06/19 08:12:09;;;;;;;10.65;4.47;;;;;;;;;;5037047;28;20048;-69
2022/06/19 08:14:36;;;;;;;16.15;5.45;;;;;;;;;;5042307;28;20454;-69
2022/06/19 08:17:03;;;;;;;15.82;3.65;;;;;;;;;;5037956;28;20053;-69
2022/06/19 08:19:30;;;;;;;11.85;4.07;;;;;;;;;;5040994;28;20060;-69
2022/06/19 08:21:57;;;;;;;10.52;3.92;;;;;;;;;;5040074;28;20392;-69
2022/06/19 08:24:24;;;;;;;11.50;4.35;;;;;;;;;;5040909;28;20514;-69
2022/06/19 08:26:54;;;;;;;10.90;3.97;;;;;;;;;;5040553;28;20049;-68
2022/06/19 08:29:21;;;;;;;10.38;3.83;;;;;;;;;;5039896;28;20076;-69
2022/06/19 08:31:48;;;;;;;11.43;4.55;;;;;;;;;;5043886;28;20051;-65
2022/06/19 08:34:15;;;;;;;12.02;4.22;;;;;;;;;;5041020;28;20095;-68
2022/06/19 08:36:41;;;;;;;15.43;4.53;;;;;;;;;;5043216;28;20037;-66
2022/06/19 08:39:12;;;;;;;13.43;4.15;;;;;;;;;;5021739;28;20145;-66
2022/06/19 08:41:55;;;;;;;12.27;4.45;;;;;;;;;;5056995;28;20049;-69
2022/06/19 08:44:44;;;;;;;12.85;4.95;;;;;;;;;;5041418;28;20053;-70
2022/06/19 08:47:33;;;;;;;15.30;4.40;;;;;;;;;;5039759;28;20052;-69
2022/06/19 08:50:34;;;;;;;16.05;4.65;;;;;;;;;;5038604;28;20072;-69
2022/06/19 08:53:04;;;;;;;11.73;4.95;;;;;;;;;;5041922;28;20055;-69
2022/06/19 08:56:03;;;;;;;10.45;4.35;;;;;;;;;;5039445;28;20056;-70
2022/06/19 08:58:51;;;;;;;12.15;6.22;;;;;;;;;;5053154;28;20098;-70
2022/06/19 09:01:36;;;;;;;11.02;5.00;;;;;;;;;;5041855;28;20053;-69
2022/06/19 09:07:30;;;;;;;13.43;4.85;;;;;;;;;;5036195;28;20049;-69
2022/06/19 09:10:06;;;;;;;9.40;5.65;;;;;;;;;;5039613;28;20467;-69
2022/06/19 09:13:02;;;;;;;12.82;5.35;;;;;;;;;;5038254;28;20049;-70
2022/06/19 09:15:31;;;;;;;13.85;4.88;;;;;;;;;;5040138;28;20408;-70
2022/06/19 09:18:05;;;;;;;9.18;4.35;;;;;;;;;;5057052;28;20056;-70
2022/06/19 09:20:42;;;;;;;13.60;4.57;;;;;;;;;;5035477;28;20629;-69
2022/06/19 09:23:18;;;;;;;11.93;5.13;;;;;;;;;;5039159;28;20049;-69
2022/06/19 09:25:46;;;;;;;11.90;5.22;;;;;;;;;;5039632;28;20439;-69
2022/06/19 09:28:21;;;;;;;12.45;4.68;;;;;;;;;;5032799;28;20057;-70
2022/06/19 09:31:06;;;;;;;16.65;5.45;;;;;;;;;;5035779;28;20049;-70
2022/06/19 09:33:50;;;;;;;15.35;5.43;;;;;;;;;;5039769;28;21415;-70
2022/06/19 09:36:25;;;;;;;14.45;4.75;;;;;;;;;;5038020;28;20045;-70
2022/06/19 09:38:57;;;;;;;9.57;4.05;;;;;;;;;;5038796;28;20044;-70
2022/06/19 09:41:40;;;;;;;14.55;4.32;;;;;;;;;;5040957;28;20053;-71
2022/06/19 09:44:22;;;;;;;10.13;5.00;;;;;;;;;;5054574;28;20088;-66
2022/06/19 09:46:53;;;;;;;7.68;4.07;;;;;;;;;;5030437;28;20037;-68
2022/06/19 09:49:21;;;;;;;9.32;3.70;;;;;;;;;;5037513;28;20350;-68
2022/06/19 09:51:52;;;;;;;6.15;3.53;;;;;;;;;;5037826;28;20049;-68
2022/06/19 09:55:05;;;;;;;10.40;3.73;;;;;;;;;;5037682;28;20064;-68
2022/06/19 09:57:37;;;;;;;9.43;4.25;;;;;;;;;;4954359;28;20051;-68
2022/06/19 10:00:09;;;;;;;16.40;4.55;;;;;;;;;;5036933;28;20052;-68
2022/06/19 10:02:51;;;;;;;12.52;4.15;;;;;;;;;;5036100;28;20563;-68
2022/06/19 10:05:34;;;;;;;10.50;3.70;;;;;;;;;;5036414;28;20057;-68
2022/06/19 10:08:13;;;;;;;9.82;3.60;;;;;;;;;;5050619;28;20071;-69
2022/06/19 10:10:48;;;;;;;12.55;4.43;;;;;;;;;;5020082;28;20500;-68
2022/06/19 10:13:29;;;;;;;13.98;4.53;;;;;;;;;;5039758;28;20058;-67
2022/06/19 10:15:56;;;;;;;9.77;4.22;;;;;;;;;;5047245;28;20049;-68
2022/06/19 10:18:32;;;;;;;11.18;4.22;;;;;;;;;;5039949;28;20060;-68
2022/06/19 10:22:13;;;;;;;9.73;3.72;;;;;;;;;;5055312;28;20056;-68
2022/06/19 10:24:23;;;;;;;6.20;4.03;;;;;;;;;;5050764;28;20057;-69
2022/06/19 10:27:38;;;;;;;10.63;4.43;;;;;;;;;;5054199;28;20103;-70
2022/06/19 10:30:13;;;;;;;11.00;5.18;;;;;;;;;;5034713;28;20049;-70
2022/06/19 10:33:01;;;;;;;8.70;3.88;;;;;;;;;;5019863;28;20049;-70
2022/06/19 10:35:46;;;;;;;10.32;4.07;;;;;;;;;;5035568;28;20045;-70
2022/06/19 10:38:22;;;;;;;10.60;4.18;;;;;;;;;;5036049;28;20633;-70
2022/06/19 10:41:01;;;;;;;9.02;3.92;;;;;;;;;;5036054;28;20068;-69
2022/06/19 10:43:33;;;;;;;11.35;4.10;;;;;;;;;;5028579;28;20053;-69
2022/06/19 10:46:05;;;;;;;14.68;4.78;;;;;;;;;;5015700;28;20042;-69
2022/06/19 10:48:39;;;;;;;11.93;4.07;;;;;;;;;;5011359;28;20050;-70
2022/06/19 10:51:10;;;;;;;11.02;3.92;;;;;;;;;;5011043;28;20049;-69
2022/06/19 10:53:56;;;;;;;12.52;4.13;;;;;;;;;;5011184;28;20054;-69
2022/06/19 10:56:56;;;;;;;13.23;4.50;;;;;;;;;;5012412;28;20042;-70
2022/06/19 10:59:25;;;;;;;12.50;4.80;;;;;;;;;;5012220;28;20057;-70
2022/06/19 11:05:06;;;;;;;12.40;5.10;;;;;;;;;;5023117;28;20050;-69
2022/06/19 11:07:32;;;;;;;14.57;5.15;;;;;;;;;;5021665;28;20320;-69
2022/06/19 11:10:07;;;;;;;15.57;4.85;;;;;;;;;;5027004;28;20084;-69
2022/06/19 11:12:41;;;;;;;8.90;4.20;;;;;;;;;;5030585;28;20057;-69
2022/06/19 11:15:11;;;;;;;9.82;4.72;;;;;;;;;;5005095;28;20053;-69
2022/06/19 11:17:40;;;;;;;14.93;4.75;;;;;;;;;;5010718;28;20077;-69
2022/06/19 11:20:20;;;;;;;11.60;4.45;;;;;;;;;;5012107;28;20050;-68
2022/06/19 11:22:51;;;;;;;9.18;4.45;;;;;;;;;;5011687;28;20053;-69
2022/06/19 11:25:21;;;;;;;12.88;4.78;;;;;;;;;;5010608;28;20064;-69
2022/06/19 11:27:56;;;;;;;9.38;4.35;;;;;;;;;;5011956;28;20101;-68
2022/06/19 11:30:34;;;;;;;11.80;4.38;;;;;;;;;;5012131;28;20103;-69
2022/06/19 11:33:02;;;;;;;13.98;4.53;;;;;;;;;;5013875;28;20100;-69
2022/06/19 11:35:44;;;;;;;13.68;4.90;;;;;;;;;;5015769;28;20046;-68
2022/06/19 11:38:12;;;;;;;13.35;5.00;;;;;;;;;;5015811;28;20111;-68
2022/06/19 11:40:41;;;;;;;14.65;4.90;;;;;;;;;;4998466;28;20405;-69
2022/06/19 11:43:27;;;;;;;10.65;5.03;;;;;;;;;;5015641;28;20057;-68
2022/06/19 11:46:07;;;;;;;10.68;4.57;;;;;;;;;;5014494;28;20049;-68
2022/06/19 11:48:33;;;;;;;13.10;4.72;;;;;;;;;;5014309;28;20543;-68
2022/06/19 11:51:00;;;;;;;11.07;3.75;;;;;;;;;;5020363;28;20053;-68
2022/06/19 11:53:27;;;;;;;10.70;4.38;;;;;;;;;;5035119;28;20049;-68
2022/06/19 11:56:15;;;;;;;6.70;4.05;;;;;;;;;;5029628;28;20069;-68
2022/06/19 11:58:44;;;;;;;13.70;3.80;;;;;;;;;;5014207;28;20519;-68
2022/06/19 12:01:14;;;;;;;10.43;4.00;;;;;;;;;;4998245;28;20060;-68
2022/06/19 12:03:57;;;;;;;10.25;3.70;;;;;;;;;;5015361;28;20049;-68
2022/06/19 12:06:45;;;;;;;8.55;3.80;;;;;;;;;;5014111;28;20056;-68
2022/06/19 12:09:40;;;;;;;11.38;4.55;;;;;;;;;;5015259;28;20051;-68
2022/06/19 12:12:12;;;;;;;12.15;4.35;;;;;;;;;;5012057;28;20053;-68
2022/06/19 12:14:59;;;;;;;11.50;4.90;;;;;;;;;;5013284;28;20057;-68
2022/06/19 12:17:37;;;;;;;8.07;4.43;;;;;;;;;;5018211;28;20056;-65
2022/06/19 12:20:06;;;;;;;11.60;4.70;;;;;;;;;;5040008;28;20057;-69
2022/06/19 12:22:45;;;;;;;12.73;4.85;;;;;;;;;;5039983;28;20052;-68
2022/06/19 12:25:33;;;;;;;11.75;4.30;;;;;;;;;;5052392;28;20057;-68
2022/06/19 12:28:38;;;;;;;9.73;3.88;;;;;;;;;;5041440;28;20397;-67
2022/06/19 12:31:11;;;;;;;10.80;4.55;;;;;;;;;;4998552;28;20061;-68
2022/06/19 12:34:20;;;;;;;10.50;4.15;;;;;;;;;;5033106;28;20599;-66
2022/06/19 12:36:47;;;;;;;10.90;3.97;;;;;;;;;;5038622;28;20056;-66
2022/06/19 12:39:18;;;;;;;9.93;4.70;;;;;;;;;;5037342;28;20526;-67
2022/06/19 12:41:57;;;;;;;16.95;5.18;;;;;;;;;;5039541;28;20139;-68
2022/06/19 12:44:45;;;;;;;14.88;4.40;;;;;;;;;;5041839;28;20096;-68
2022/06/19 12:47:49;;;;;;;9.45;4.30;;;;;;;;;;5037672;28;20091;-68
2022/06/19 12:50:35;;;;;;;10.70;4.32;;;;;;;;;;5040874;28;20072;-68
2022/06/19 12:53:32;;;;;;;11.55;4.43;;;;;;;;;;5037892;28;20115;-67
2022/06/19 12:56:14;;;;;;;11.07;3.97;;;;;;;;;;5036917;28;20064;-68
2022/06/19 12:58:46;;;;;;;10.10;4.20;;;;;;;;;;5035194;28;20427;-68
2022/06/19 13:01:30;;;;;;;9.70;4.60;;;;;;;;;;5026037;28;20045;-68
2022/06/19 13:04:43;;;;;;;11.02;4.45;;;;;;;;;;5021823;28;20045;-68
2022/06/19 13:07:46;;;;;;;7.32;4.00;;;;;;;;;;5007230;28;20419;-68
2022/06/19 13:10:31;;;;;;;8.98;3.80;;;;;;;;;;5034083;28;20053;-66
2022/06/19 13:13:45;;;;;;;6.05;3.60;;;;;;;;;;5039340;28;20063;-66
2022/06/19 13:16:17;;;;;;;7.70;3.92;;;;;;;;;;4958628;28;20050;-66
2022/06/19 13:18:49;;;;;;;5.78;3.72;;;;;;;;;;4971858;28;20043;-64
2022/06/19 13:21:37;;;;;;;11.07;4.28;;;;;;;;;;5002555;28;20048;-66
2022/06/19 13:24:15;;;;;;;9.40;3.97;;;;;;;;;;5054859;28;20061;-68
2022/06/19 13:27:12;;;;;;;12.43;4.63;;;;;;;;;;5037211;28;20572;-66
2022/06/19 13:29:50;;;;;;;9.98;4.43;;;;;;;;;;5035814;28;20059;-66
2022/06/19 13:32:52;;;;;;;11.57;4.30;;;;;;;;;;5055086;28;20143;-67
2022/06/19 13:35:45;;;;;;;9.55;4.32;;;;;;;;;;4973998;28;20143;-70
2022/06/19 13:38:59;;;;;;;7.55;4.45;;;;;;;;;;5022645;28;20053;-68
2022/06/19 13:41:58;;;;;;;10.75;4.72;;;;;;;;;;5021434;28;20446;-68
2022/06/19 13:44:32;;;;;;;10.98;5.32;;;;;;;;;;5054009;28;20045;-66
2022/06/19 13:46:59;;;;;;;8.48;4.75;;;;;;;;;;5033537;28;20045;-68
2022/06/19 13:49:36;;;;;;;10.38;4.38;;;;;;;;;;5036561;28;20056;-73
2022/06/19 13:52:10;;;;;;;13.55;4.18;;;;;;;;;;5037162;28;20522;-68
2022/06/19 13:54:39;;;;;;;6.97;3.80;;;;;;;;;;5033397;28;20049;-66
2022/06/19 13:57:46;;;;;;;9.43;4.25;;;;;;;;;;5053648;28;20050;-69
2022/06/19 14:00:21;;;;;;;11.32;4.65;;;;;;;;;;4977987;28;20054;-71
2022/06/19 14:03:18;;;;;;;12.23;4.75;;;;;;;;;;4975470;28;20047;-69
2022/06/19 14:05:47;;;;;;;12.35;4.32;;;;;;;;;;5020354;28;20068;-68
2022/06/19 14:08:26;;;;;;;14.90;4.15;;;;;;;;;;5017850;28;20500;-69
2022/06/19 14:11:03;;;;;;;9.93;4.78;;;;;;;;;;5038252;28;20500;-70
2022/06/19 14:13:53;;;;;;;12.48;3.88;;;;;;;;;;5038657;28;20131;-68
2022/06/19 14:16:29;;;;;;;10.23;3.67;;;;;;;;;;5052583;28;20415;-69
2022/06/19 14:19:18;;;;;;;8.80;4.40;;;;;;;;;;5035626;28;20076;-69
2022/06/19 14:22:07;;;;;;;12.50;4.32;;;;;;;;;;5032746;28;20084;-69
2022/06/19 14:25:01;;;;;;;15.70;7.55;;;;;;;;;;5013633;28;20050;-69
2022/06/19 14:28:11;;;;;;;11.30;5.60;;;;;;;;;;5029982;28;20046;-69
2022/06/19 14:30:47;;;;;;;13.48;6.85;;;;;;;;;;5038267;28;20049;-70
2022/06/19 14:33:40;;;;;;;11.63;4.35;;;;;;;;;;5030094;28;20045;-69
2022/06/19 14:36:12;;;;;;;13.40;4.68;;;;;;;;;;5038226;28;20144;-70
2022/06/19 14:38:39;;;;;;;13.90;4.90;;;;;;;;;;5039382;28;20413;-70
2022/06/19 14:41:25;;;;;;;9.70;4.78;;;;;;;;;;5034497;28;20061;-70
2022/06/19 14:44:03;;;;;;;10.65;5.15;;;;;;;;;;5028685;28;20049;-69
2022/06/19 14:46:38;;;;;;;9.02;4.50;;;;;;;;;;5036545;28;20484;-69
2022/06/19 14:49:29;;;;;;;11.35;4.57;;;;;;;;;;5035057;28;20056;-69
2022/06/19 14:52:13;;;;;;;11.68;4.30;;;;;;;;;;5034348;28;20056;-70
2022/06/19 14:55:11;;;;;;;12.00;4.95;;;;;;;;;;5049029;28;20061;-69
2022/06/19 14:57:43;;;;;;;11.73;4.60;;;;;;;;;;5031685;28;20053;-68
2022/06/19 15:00:12;;;;;;;12.52;4.32;;;;;;;;;;5032091;28;20045;-69
2022/06/19 15:02:59;;;;;;;12.38;4.07;;;;;;;;;;5036046;28;20049;-68
2022/06/19 15:05:30;;;;;;;11.13;4.13;;;;;;;;;;5036348;28;20063;-68
2022/06/19 15:08:04;;;;;;;;;;;;;;;;;;5034075;28;20439;-69
2022/06/19 15:10:38;;;;;;;11.75;4.35;;;;;;;;;;5015785;28;20535;-68
2022/06/19 15:13:26;;;;;;;16.63;5.35;;;;;;;;;;5056207;28;20060;-69
2022/06/19 15:15:56;;;;;;;20.10;5.68;;;;;;;;;;5016821;28;20049;-68
2022/06/19 15:18:26;;;;;;;10.90;4.55;;;;;;;;;;5038019;28;20042;-69
2022/06/19 15:20:58;;;;;;;11.75;4.40;;;;;;;;;;5038755;28;20053;-69
2022/06/19 15:23:31;;;;;;;9.23;4.18;;;;;;;;;;5039901;28;20053;-68
2022/06/19 15:26:19;;;;;;;9.15;3.72;;;;;;;;;;5047741;28;20061;-69